createdAt,value
2022-07-31T00:00:31.763Z,101344.19
2022-07-31T00:02:59.101Z,101347.84
2022-07-31T00:05:28.666Z,101351.88
2022-07-31T00:07:56.122Z,101348.53
2022-07-31T00:10:23.510Z,101339.13
2022-07-31T00:12:53.116Z,101340.34
2022-07-31T00:15:20.357Z,101345.16
2022-07-31T00:17:50.702Z,101347.56
2022-07-31T00:20:19.221Z,101343.94
2022-07-31T00:22:48.777Z,101338.97
2022-07-31T00:25:19.774Z,101339.97
2022-07-31T00:27:46.960Z,101336.97
2022-07-31T00:30:14.588Z,101342.50
2022-07-31T00:32:45.464Z,101342.50
2022-07-31T00:35:14.764Z,101336.06
2022-07-31T00:37:44.304Z,101331.59
2022-07-31T00:40:14.270Z,101329.84
2022-07-31T00:42:44.657Z,101327.16
2022-07-31T00:45:14.371Z,101339.72
2022-07-31T00:47:45.003Z,101331.22
2022-07-31T00:50:13.308Z,101328.91
2022-07-31T00:52:40.720Z,101325.63
2022-07-31T00:55:11.321Z,101326.69
2022-07-31T00:57:40.668Z,101328.66
2022-07-31T01:00:11.008Z,101327.81
2022-07-31T01:02:46.618Z,101321.69
2022-07-31T01:05:14.060Z,101326.84
2022-07-31T01:07:43.475Z,101333.44
2022-07-31T01:10:22.874Z,101333.44
2022-07-31T01:13:00.240Z,101327.91
2022-07-31T01:15:28.847Z,101323.47
2022-07-31T01:17:56.903Z,101321.94
2022-07-31T01:20:25.550Z,101324.06
2022-07-31T01:23:23.030Z,101324.00
2022-07-31T01:26:34.964Z,101311.03
2022-07-31T01:29:26.951Z,101323.31
2022-07-31T01:32:08.997Z,101314.47
2022-07-31T01:35:03.678Z,101321.84
2022-07-31T01:37:40.829Z,101321.84
2022-07-31T01:40:17.780Z,101322.53
2022-07-31T01:43:01.791Z,101327.63
2022-07-31T01:45:30.355Z,101324.88
2022-07-31T01:47:59.004Z,101329.28
2022-07-31T01:50:43.833Z,101323.81
2022-07-31T01:53:16.416Z,101318.19
2022-07-31T01:56:02.458Z,101317.06
2022-07-31T01:58:37.547Z,101320.03
2022-07-31T02:01:08.291Z,101320.78
2022-07-31T02:03:44.530Z,101321.84
2022-07-31T02:06:19.173Z,101314.94
2022-07-31T02:08:51.682Z,101319.53
2022-07-31T02:11:22.661Z,101316.84
2022-07-31T02:13:53.466Z,101314.41
2022-07-31T02:16:21.650Z,101319.66
2022-07-31T02:18:51.533Z,101321.34
2022-07-31T02:21:19.026Z,101323.06
2022-07-31T02:23:46.270Z,101319.94
2022-07-31T02:26:15.910Z,101320.00
2022-07-31T02:28:45.088Z,101322.97
2022-07-31T02:31:17.957Z,101332.03
2022-07-31T02:33:51.420Z,101330.22
2022-07-31T02:36:23.882Z,101320.19
2022-07-31T02:38:57.651Z,101323.41
2022-07-31T02:41:28.242Z,101322.78
2022-07-31T02:43:56.200Z,101319.41
2022-07-31T02:46:23.863Z,101314.22
2022-07-31T02:48:54.018Z,101320.41
2022-07-31T02:51:22.363Z,101315.97
2022-07-31T02:53:49.706Z,101314.25
2022-07-31T02:56:17.158Z,101311.97
2022-07-31T02:58:46.811Z,101306.03
2022-07-31T03:01:16.775Z,101300.69
2022-07-31T03:03:50.286Z,101301.84
2022-07-31T03:06:18.406Z,101300.06
2022-07-31T03:08:45.477Z,101300.97
2022-07-31T03:11:12.663Z,101306.47
2022-07-31T03:13:43.771Z,101298.44
2022-07-31T03:16:12.029Z,101307.34
2022-07-31T03:18:41.315Z,101295.53
2022-07-31T03:21:11.226Z,101303.19
2022-07-31T03:23:41.800Z,101299.38
2022-07-31T03:26:10.561Z,101299.59
2022-07-31T03:28:37.808Z,101302.78
2022-07-31T03:31:04.953Z,101304.69
2022-07-31T03:33:31.991Z,101298.94
2022-07-31T03:35:59.478Z,101295.78
2022-07-31T03:38:41.510Z,101292.56
2022-07-31T03:41:11.085Z,101292.09
2022-07-31T03:43:47.516Z,101287.03
2022-07-31T03:46:20.310Z,101286.59
2022-07-31T03:48:48.113Z,101298.97
2022-07-31T03:51:18.869Z,101287.75
2022-07-31T03:53:46.986Z,101283.50
2022-07-31T03:56:15.376Z,101277.81
2022-07-31T03:58:42.705Z,101280.31
2022-07-31T04:01:20.614Z,101275.44
2022-07-31T04:03:47.878Z,101280.53
2022-07-31T04:06:17.083Z,101272.91
2022-07-31T04:08:52.008Z,101283.03
2022-07-31T04:11:21.541Z,101276.50
2022-07-31T04:13:50.866Z,101281.63
2022-07-31T04:16:20.214Z,101284.88
2022-07-31T04:18:47.813Z,101277.09
2022-07-31T04:21:23.229Z,101274.97
2022-07-31T04:23:50.653Z,101274.75
2022-07-31T04:26:25.460Z,101276.66
2022-07-31T04:28:56.149Z,101280.88
2022-07-31T04:31:26.444Z,101285.53
2022-07-31T04:33:56.875Z,101286.13
2022-07-31T04:36:30.470Z,101290.16
2022-07-31T04:39:01.936Z,101288.84
2022-07-31T04:41:29.093Z,101287.16
2022-07-31T04:43:59.855Z,101293.28
2022-07-31T04:46:29.482Z,101290.91
2022-07-31T04:48:56.774Z,101295.59
2022-07-31T04:51:27.045Z,101299.59
2022-07-31T04:53:57.274Z,101305.50
2022-07-31T04:56:42.432Z,101306.25
2022-07-31T04:59:16.398Z,101306.53
2022-07-31T05:01:47.985Z,101307.63
2022-07-31T05:04:16.067Z,101309.94
2022-07-31T05:06:47.841Z,101312.31
2022-07-31T05:09:23.636Z,101312.16
2022-07-31T05:11:53.231Z,101313.16
2022-07-31T05:14:23.896Z,101319.31
2022-07-31T05:16:51.132Z,101313.25
2022-07-31T05:19:18.553Z,101319.16
2022-07-31T05:22:03.836Z,101310.31
2022-07-31T05:24:33.618Z,101315.81
2022-07-31T05:27:06.036Z,101318.63
2022-07-31T05:29:33.884Z,101310.16
2022-07-31T05:32:03.689Z,101311.94
2022-07-31T05:34:31.191Z,101315.13
2022-07-31T05:37:02.702Z,101304.81
2022-07-31T05:39:30.743Z,101313.97
2022-07-31T05:41:58.338Z,101308.66
2022-07-31T05:44:25.409Z,101303.84
2022-07-31T05:49:22.540Z,101305.75
2022-07-31T05:51:54.297Z,101301.25
2022-07-31T05:54:22.587Z,101298.53
2022-07-31T05:56:49.676Z,101307.09
2022-07-31T05:59:16.860Z,101305.69
2022-07-31T06:01:44.125Z,101299.94
2022-07-31T06:04:14.227Z,101291.56
2022-07-31T06:06:43.617Z,101288.75
2022-07-31T06:09:13.177Z,101293.03
2022-07-31T06:11:40.346Z,101295.28
2022-07-31T06:14:12.549Z,101302.38
2022-07-31T06:16:42.503Z,101297.88
2022-07-31T06:19:09.618Z,101296.50
2022-07-31T06:21:36.647Z,101297.69
2022-07-31T06:24:03.864Z,101298.97
2022-07-31T06:26:31.495Z,101304.97
2022-07-31T06:28:58.605Z,101302.66
2022-07-31T06:31:30.492Z,101304.44
2022-07-31T06:33:59.971Z,101304.97
2022-07-31T06:36:29.489Z,101304.22
2022-07-31T06:38:56.676Z,101297.69
2022-07-31T06:41:42.573Z,101297.97
2022-07-31T06:44:11.743Z,101288.13
2022-07-31T06:46:39.489Z,101299.22
2022-07-31T06:49:17.284Z,101301.16
2022-07-31T06:51:45.249Z,101304.28
2022-07-31T06:54:12.610Z,101297.91
2022-07-31T06:56:39.972Z,101304.59
2022-07-31T06:59:08.356Z,101308.28
2022-07-31T07:01:38.972Z,101297.97
2022-07-31T07:04:06.105Z,101300.34
2022-07-31T07:06:35.792Z,101293.88
2022-07-31T07:09:02.764Z,101295.13
2022-07-31T07:11:29.889Z,101295.47
2022-07-31T07:13:57.183Z,101293.47
2022-07-31T07:16:30.136Z,101301.13
2022-07-31T07:18:59.636Z,101289.25
2022-07-31T07:21:27.147Z,101282.16
2022-07-31T07:23:54.128Z,101281.84
2022-07-31T07:26:21.407Z,101281.69
2022-07-31T07:28:53.256Z,101279.06
2022-07-31T07:31:20.238Z,101280.84
2022-07-31T07:33:47.833Z,101281.22
2022-07-31T07:36:23.342Z,101282.94
2022-07-31T07:38:56.005Z,101287.88
2022-07-31T07:41:29.122Z,101275.38
2022-07-31T07:43:58.247Z,101281.84
2022-07-31T07:46:27.718Z,101271.56
2022-07-31T07:49:00.117Z,101265.44
2022-07-31T07:51:27.284Z,101264.06
2022-07-31T07:53:54.411Z,101259.94
2022-07-31T07:56:21.591Z,101266.72
2022-07-31T07:58:49.229Z,101263.84
2022-07-31T08:01:16.804Z,101258.31
2022-07-31T08:03:51.236Z,101265.56
2022-07-31T08:06:25.834Z,101270.00
2022-07-31T08:08:54.982Z,101271.34
2022-07-31T08:11:27.847Z,101277.38
2022-07-31T08:13:57.438Z,101268.50
2022-07-31T08:16:24.471Z,101266.25
2022-07-31T08:18:53.055Z,101272.13
2022-07-31T08:21:22.302Z,101274.50
2022-07-31T08:23:49.367Z,101275.38
2022-07-31T08:26:27.309Z,101268.88
2022-07-31T08:28:55.868Z,101268.44
2022-07-31T08:31:23.111Z,101265.75
2022-07-31T08:33:50.106Z,101270.91
2022-07-31T08:36:17.183Z,101272.31
2022-07-31T08:38:44.239Z,101281.66
2022-07-31T08:41:15.121Z,101279.31
2022-07-31T08:44:01.725Z,101267.00
2022-07-31T08:46:42.554Z,101268.13
2022-07-31T08:49:16.149Z,101265.59
2022-07-31T08:51:50.902Z,101269.66
2022-07-31T08:54:23.025Z,101264.56
2022-07-31T08:56:52.930Z,101266.47
2022-07-31T08:59:22.192Z,101265.47
2022-07-31T09:01:49.367Z,101263.25
2022-07-31T09:04:17.454Z,101260.22
2022-07-31T09:06:45.312Z,101264.28
2022-07-31T09:09:15.242Z,101250.19
2022-07-31T09:11:55.363Z,101255.84
2022-07-31T09:14:32.327Z,101255.63
2022-07-31T09:16:59.519Z,101266.13
2022-07-31T09:19:52.307Z,101250.50
2022-07-31T09:22:29.501Z,101250.38
2022-07-31T09:25:19.345Z,101252.28
2022-07-31T09:28:00.604Z,101244.78
2022-07-31T09:30:27.876Z,101243.88
2022-07-31T09:32:54.954Z,101241.59
2022-07-31T09:35:22.175Z,101234.34
2022-07-31T09:37:49.505Z,101236.25
2022-07-31T09:40:21.465Z,101217.88
2022-07-31T09:42:55.293Z,101232.63
2022-07-31T09:45:27.673Z,101230.69
2022-07-31T09:48:12.431Z,101218.66
2022-07-31T09:50:54.791Z,101223.19
2022-07-31T09:53:22.149Z,101217.06
2022-07-31T09:56:00.416Z,101217.28
2022-07-31T09:58:27.607Z,101225.88
2022-07-31T10:00:56.646Z,101217.22
2022-07-31T10:03:26.293Z,101225.19
2022-07-31T10:05:59.459Z,101220.56
2022-07-31T10:08:36.398Z,101217.47
2022-07-31T10:11:06.077Z,101206.38
2022-07-31T10:13:46.996Z,101208.03
2022-07-31T10:16:17.326Z,101199.09
2022-07-31T10:18:53.169Z,101202.09
2022-07-31T10:21:32.257Z,101189.06
2022-07-31T10:24:00.818Z,101181.06
2022-07-31T10:26:57.389Z,101176.25
2022-07-31T10:29:20.133Z,101181.53
2022-07-31T10:31:47.491Z,101167.63
2022-07-31T10:34:16.248Z,101169.09
2022-07-31T10:36:49.508Z,101180.75
2022-07-31T10:39:31.314Z,101181.13
2022-07-31T10:42:43.219Z,101175.78
2022-07-31T10:45:15.190Z,101164.59
2022-07-31T10:48:01.763Z,101162.78
2022-07-31T10:50:31.901Z,101158.28
2022-07-31T10:53:15.661Z,101150.31
2022-07-31T10:55:45.908Z,101145.50
2022-07-31T10:58:21.910Z,101156.66
2022-07-31T11:00:53.840Z,101152.28
2022-07-31T11:03:23.101Z,101151.63
2022-07-31T11:06:01.004Z,101147.50
2022-07-31T11:08:42.804Z,101143.44
2022-07-31T11:11:11.081Z,101132.78
2022-07-31T11:13:55.419Z,101132.25
2022-07-31T11:16:22.707Z,101125.16
2022-07-31T11:19:09.592Z,101129.56
2022-07-31T11:21:43.018Z,101128.50
2022-07-31T11:24:23.325Z,101113.50
2022-07-31T11:26:58.227Z,101119.78
2022-07-31T11:29:59.798Z,101117.34
2022-07-31T11:32:25.638Z,101110.81
2022-07-31T11:34:57.414Z,101110.25
2022-07-31T11:37:46.045Z,101107.44
2022-07-31T11:40:22.305Z,101106.72
2022-07-31T11:43:24.244Z,101102.34
2022-07-31T11:45:51.306Z,101099.69
2022-07-31T11:48:24.575Z,101099.16
2022-07-31T11:50:54.749Z,101091.03
2022-07-31T11:53:22.099Z,101089.13
2022-07-31T11:55:59.008Z,101090.34
2022-07-31T11:58:28.750Z,101086.94
2022-07-31T12:01:04.504Z,101083.97
2022-07-31T12:03:37.036Z,101080.53
2022-07-31T12:06:06.697Z,101068.50
2022-07-31T12:08:42.236Z,101072.03
2022-07-31T12:11:11.426Z,101069.16
2022-07-31T12:13:40.048Z,101060.69
2022-07-31T12:16:09.838Z,101065.31
2022-07-31T12:19:01.749Z,101054.75
2022-07-31T12:21:37.912Z,101052.97
2022-07-31T12:24:13.117Z,101045.56
2022-07-31T12:26:51.065Z,101044.03
2022-07-31T12:29:32.776Z,101036.47
2022-07-31T12:32:00.486Z,101037.69
2022-07-31T12:34:38.565Z,101030.78
2022-07-31T12:37:06.983Z,101030.78
2022-07-31T12:39:59.682Z,101029.69
2022-07-31T12:42:40.687Z,101039.50
2022-07-31T12:45:18.145Z,101030.00
2022-07-31T12:47:52.195Z,101022.47
2022-07-31T12:50:24.289Z,101020.97
2022-07-31T12:52:51.487Z,101014.25
2022-07-31T12:55:22.470Z,101011.63
2022-07-31T12:57:52.456Z,101013.53
2022-07-31T13:00:27.553Z,101010.41
2022-07-31T13:02:56.835Z,101003.09
2022-07-31T13:05:25.398Z,101004.91
2022-07-31T13:07:57.362Z,100998.75
2022-07-31T13:10:29.265Z,100994.44
2022-07-31T13:13:04.591Z,100996.56
2022-07-31T13:15:31.713Z,101000.28
2022-07-31T13:18:04.927Z,100991.34
2022-07-31T13:20:32.654Z,100996.41
2022-07-31T13:23:02.832Z,100985.88
2022-07-31T13:25:32.826Z,100983.16
2022-07-31T13:28:00.547Z,100986.38
2022-07-31T13:30:30.533Z,100982.72
2022-07-31T13:32:57.572Z,100980.34
2022-07-31T13:35:28.522Z,100973.25
2022-07-31T13:37:57.201Z,100969.97
2022-07-31T13:40:44.534Z,100969.19
2022-07-31T13:43:12.394Z,100971.22
2022-07-31T13:45:41.800Z,100966.06
2022-07-31T13:48:10.199Z,100960.63
2022-07-31T13:50:39.960Z,100957.06
2022-07-31T13:53:09.516Z,100952.97
2022-07-31T13:55:37.660Z,100960.63
2022-07-31T13:58:05.194Z,100959.59
2022-07-31T14:00:34.888Z,100956.59
2022-07-31T14:03:01.931Z,100943.50
2022-07-31T14:05:29.087Z,100944.09
2022-07-31T14:08:03.234Z,100939.13
2022-07-31T14:10:52.070Z,100942.19
2022-07-31T14:13:22.435Z,100936.78
2022-07-31T14:15:49.713Z,100938.41
2022-07-31T14:18:18.979Z,100938.81
2022-07-31T14:20:46.640Z,100937.13
2022-07-31T14:23:16.163Z,100938.97
2022-07-31T14:25:43.296Z,100932.41
2022-07-31T14:28:13.025Z,100932.69
2022-07-31T14:30:45.998Z,100933.19
2022-07-31T14:33:14.308Z,100930.63
2022-07-31T14:35:43.878Z,100925.56
2022-07-31T14:38:10.929Z,100923.97
2022-07-31T14:40:38.147Z,100923.13
2022-07-31T14:43:05.183Z,100916.19
2022-07-31T14:45:51.397Z,100922.44
2022-07-31T14:48:22.062Z,100918.06
2022-07-31T14:50:52.054Z,100919.34
2022-07-31T14:53:19.021Z,100922.63
2022-07-31T14:55:48.179Z,100931.03
2022-07-31T14:58:21.372Z,100930.22
2022-07-31T15:00:48.402Z,100939.09
2022-07-31T15:03:18.201Z,100935.69
2022-07-31T15:06:39.953Z,100945.88
2022-07-31T15:08:38.583Z,100946.06
2022-07-31T15:11:05.603Z,100953.94
2022-07-31T15:13:36.056Z,100947.88
2022-07-31T15:16:06.028Z,100948.22
2022-07-31T15:18:35.297Z,100947.28
2022-07-31T15:21:04.885Z,100955.06
2022-07-31T15:23:37.305Z,100955.06
2022-07-31T15:26:06.993Z,100951.56
2022-07-31T15:28:34.573Z,100955.09
2022-07-31T15:31:07.713Z,100946.19
2022-07-31T15:33:34.870Z,100948.19
2022-07-31T15:36:04.408Z,100947.03
2022-07-31T15:38:33.813Z,100956.47
2022-07-31T15:41:00.865Z,100960.91
2022-07-31T15:43:32.127Z,100953.38
2022-07-31T15:46:08.692Z,100952.28
2022-07-31T15:48:37.377Z,100956.19
2022-07-31T15:51:09.388Z,100951.19
2022-07-31T15:53:39.018Z,100948.66
2022-07-31T15:56:06.814Z,100955.56
2022-07-31T15:58:34.035Z,100959.22
2022-07-31T16:01:01.205Z,100949.13
2022-07-31T16:03:50.840Z,100957.78
2022-07-31T16:06:20.401Z,100954.50
2022-07-31T16:08:59.871Z,100942.81
2022-07-31T16:12:04.662Z,100949.72
2022-07-31T16:14:13.921Z,100939.47
2022-07-31T16:16:45.515Z,100933.53
2022-07-31T16:19:13.068Z,100933.19
2022-07-31T16:21:42.458Z,100927.06
2022-07-31T16:24:09.485Z,100917.31
2022-07-31T16:26:40.045Z,100914.38
2022-07-31T16:29:07.760Z,100910.16
2022-07-31T16:31:46.833Z,100912.34
2022-07-31T16:34:13.849Z,100915.16
2022-07-31T16:36:44.236Z,100914.59
2022-07-31T16:39:20.481Z,100919.63
2022-07-31T16:41:54.421Z,100918.25
2022-07-31T16:44:22.466Z,100921.75
2022-07-31T16:46:54.500Z,100920.63
2022-07-31T16:49:28.367Z,100941.13
2022-07-31T16:52:06.782Z,100932.72
2022-07-31T16:54:34.242Z,100939.13
2022-07-31T16:57:03.589Z,100938.56
2022-07-31T16:59:30.910Z,100936.91
2022-07-31T17:02:01.116Z,100938.50
2022-07-31T17:04:29.002Z,100950.91
2022-07-31T17:06:58.966Z,100958.53
2022-07-31T17:09:26.266Z,100972.59
2022-07-31T17:11:56.539Z,100957.50
2022-07-31T17:14:26.589Z,100962.41
2022-07-31T17:16:55.378Z,100948.97
2022-07-31T17:19:41.650Z,100951.63
2022-07-31T17:22:17.756Z,100942.09
2022-07-31T17:24:50.891Z,100939.56
2022-07-31T17:27:19.617Z,100938.66
2022-07-31T17:29:46.747Z,100944.19
2022-07-31T17:32:13.892Z,100947.56
2022-07-31T17:34:45.050Z,100941.63
2022-07-31T17:37:14.375Z,100934.34
2022-07-31T17:39:41.488Z,100941.97
2022-07-31T17:42:09.542Z,100941.56
2022-07-31T17:44:39.856Z,100941.47
2022-07-31T17:47:10.506Z,100941.13
2022-07-31T17:49:40.255Z,100954.22
2022-07-31T17:52:09.979Z,100961.72
2022-07-31T17:54:39.354Z,100954.06
2022-07-31T17:57:07.157Z,100961.41
2022-07-31T17:59:37.238Z,100946.28
2022-07-31T18:02:04.961Z,100950.78
2022-07-31T18:04:38.750Z,100955.50
2022-07-31T18:07:11.360Z,100944.91
2022-07-31T18:09:44.418Z,100944.28
2022-07-31T18:12:15.707Z,100946.38
2022-07-31T18:14:43.310Z,100942.34
2022-07-31T18:17:10.547Z,100943.84
2022-07-31T18:19:37.897Z,100937.13
2022-07-31T18:22:05.076Z,100927.16
2022-07-31T18:24:32.642Z,100933.53
2022-07-31T18:26:59.816Z,100933.94
2022-07-31T18:29:31.726Z,100930.34
2022-07-31T18:32:02.287Z,100935.34
2022-07-31T18:34:31.996Z,100936.16
2022-07-31T18:37:06.550Z,100937.19
2022-07-31T18:39:49.017Z,100939.56
2022-07-31T18:42:19.729Z,100944.22
2022-07-31T18:44:46.941Z,100951.66
2022-07-31T18:47:14.100Z,100946.03
2022-07-31T18:51:01.845Z,100959.28
2022-07-31T18:52:32.614Z,100954.34
2022-07-31T18:55:02.166Z,100955.88
2022-07-31T18:57:34.743Z,100946.28
2022-07-31T19:00:02.356Z,100945.53
2022-07-31T19:02:31.717Z,100938.81
2022-07-31T19:05:02.248Z,100938.59
2022-07-31T19:07:30.272Z,100942.00
2022-07-31T19:10:06.000Z,100941.97
2022-07-31T19:12:36.254Z,100939.66
2022-07-31T19:15:04.637Z,100943.28
2022-07-31T19:17:44.701Z,100943.00
2022-07-31T19:20:12.648Z,100936.09
2022-07-31T19:23:02.191Z,100933.56
2022-07-31T19:25:53.872Z,100940.44
2022-07-31T19:28:26.683Z,100940.81
2022-07-31T19:30:57.176Z,100936.94
2022-07-31T19:33:26.933Z,100939.28
2022-07-31T19:36:01.758Z,100942.16
2022-07-31T19:38:31.723Z,100938.84
2022-07-31T19:41:00.154Z,100933.59
2022-07-31T19:43:27.725Z,100933.22
2022-07-31T19:46:00.634Z,100938.25
2022-07-31T19:48:45.371Z,100939.75
2022-07-31T19:51:14.274Z,100929.97
2022-07-31T19:53:42.298Z,100925.19
2022-07-31T19:56:10.966Z,100931.47
2022-07-31T19:58:42.577Z,100921.50
2022-07-31T20:01:13.110Z,100923.88
2022-07-31T20:03:40.365Z,100925.16
2022-07-31T20:06:08.059Z,100918.00
2022-07-31T20:08:39.865Z,100917.16
2022-07-31T20:11:10.666Z,100915.25
2022-07-31T20:13:40.124Z,100915.94
2022-07-31T20:16:07.426Z,100915.69
2022-07-31T20:18:36.677Z,100911.56
2022-07-31T20:21:11.751Z,100916.41
2022-07-31T20:23:48.918Z,100912.19
2022-07-31T20:26:21.737Z,100916.72
2022-07-31T20:28:48.647Z,100912.50
2022-07-31T20:31:21.420Z,100904.78
2022-07-31T20:33:56.940Z,100899.72
2022-07-31T20:36:24.152Z,100908.25
2022-07-31T20:38:51.319Z,100906.69
2022-07-31T20:41:18.307Z,100898.66
2022-07-31T20:43:45.310Z,100908.75
2022-07-31T20:46:12.296Z,100915.31
2022-07-31T20:48:41.742Z,100902.63
2022-07-31T20:51:15.933Z,100898.81
2022-07-31T20:53:44.153Z,100890.63
2022-07-31T20:56:12.345Z,100892.63
2022-07-31T20:58:41.752Z,100882.47
2022-07-31T21:01:11.833Z,100885.38
2022-07-31T21:03:38.946Z,100879.50
2022-07-31T21:06:08.085Z,100880.41
2022-07-31T21:08:35.099Z,100878.59
2022-07-31T21:11:06.075Z,100876.47
2022-07-31T21:13:36.296Z,100871.19
2022-07-31T21:16:05.906Z,100870.28
2022-07-31T21:18:34.687Z,100865.41
2022-07-31T21:21:02.575Z,100864.28
2022-07-31T21:23:29.523Z,100854.28
2022-07-31T21:28:27.400Z,100855.38
2022-07-31T21:30:56.026Z,100855.22
2022-07-31T21:33:25.862Z,100851.31
2022-07-31T21:35:55.749Z,100855.44
2022-07-31T21:38:23.395Z,100847.72
2022-07-31T21:40:50.761Z,100845.88
2022-07-31T21:43:22.962Z,100847.50
2022-07-31T21:45:57.769Z,100854.88
2022-07-31T21:48:32.826Z,100854.50
2022-07-31T21:51:02.619Z,100857.91
2022-07-31T21:53:32.007Z,100860.72
2022-07-31T21:56:02.931Z,100856.81
2022-07-31T21:58:29.909Z,100861.72
2022-07-31T22:00:59.192Z,100852.47
2022-07-31T22:03:26.047Z,100854.88
2022-07-31T22:06:14.026Z,100855.91
2022-07-31T22:08:40.949Z,100859.72
2022-07-31T22:11:07.906Z,100858.25
2022-07-31T22:13:34.912Z,100859.91
2022-07-31T22:16:01.986Z,100856.25
2022-07-31T22:18:32.028Z,100865.50
2022-07-31T22:21:06.626Z,100860.50
2022-07-31T22:23:38.548Z,100869.91
2022-07-31T22:26:06.012Z,100863.81
2022-07-31T22:28:33.211Z,100854.94
2022-07-31T22:31:00.358Z,100868.28
2022-07-31T22:33:27.334Z,100851.31
2022-07-31T22:35:59.039Z,100860.53
2022-07-31T22:38:29.435Z,100853.56
2022-07-31T22:40:57.610Z,100850.59
2022-07-31T22:44:13.388Z,100850.28
2022-07-31T22:46:15.438Z,100851.81
2022-07-31T22:48:45.024Z,100856.25
2022-07-31T22:51:14.305Z,100860.53
2022-07-31T22:53:50.203Z,100852.88
2022-07-31T22:56:20.133Z,100852.72
2022-07-31T22:58:49.209Z,100853.34
2022-07-31T23:01:16.050Z,100853.47
2022-07-31T23:03:45.535Z,100856.56
2022-07-31T23:06:31.206Z,100855.53
2022-07-31T23:09:00.000Z,100863.13
2022-07-31T23:11:27.652Z,100858.94
2022-07-31T23:13:56.820Z,100858.00
2022-07-31T23:16:26.492Z,100857.88
2022-07-31T23:18:55.705Z,100854.53
2022-07-31T23:21:27.252Z,100858.25
2022-07-31T23:23:54.458Z,100859.06
2022-07-31T23:26:24.290Z,100862.66
2022-07-31T23:28:54.681Z,100860.69
2022-07-31T23:31:22.575Z,100857.63
2022-07-31T23:33:50.151Z,100854.56
2022-07-31T23:36:17.796Z,100849.22
2022-07-31T23:38:49.451Z,100853.34
2022-07-31T23:41:36.345Z,100850.78
2022-07-31T23:44:03.316Z,100851.00
2022-07-31T23:46:38.604Z,100845.22
2022-07-31T23:49:11.790Z,100841.25
2022-07-31T23:51:41.178Z,100840.41
2022-07-31T23:54:08.564Z,100835.44
2022-07-31T23:56:35.507Z,100834.38
2022-07-31T23:59:06.836Z,100834.19
